createdAt,value
2022-11-20T00:01:12.444Z,82.92
2022-11-20T00:03:40.088Z,82.60
2022-11-20T00:06:10.903Z,82.04
2022-11-20T00:08:38.626Z,81.60
2022-11-20T00:11:12.792Z,81.71
2022-11-20T00:13:42.910Z,81.49
2022-11-20T00:16:12.262Z,81.59
2022-11-20T00:18:39.240Z,81.24
2022-11-20T00:21:22.314Z,81.12
2022-11-20T00:23:50.256Z,81.29
2022-11-20T00:26:19.438Z,80.79
2022-11-20T00:28:52.000Z,81.05
2022-11-20T00:31:19.677Z,81.49
2022-11-20T00:33:47.134Z,81.54
2022-11-20T00:36:22.734Z,81.37
2022-11-20T00:38:57.286Z,81.43
2022-11-20T00:41:25.927Z,81.83
2022-11-20T00:43:54.596Z,82.43
2022-11-20T00:46:27.749Z,82.53
2022-11-20T00:48:54.637Z,82.72
2022-11-20T00:51:24.075Z,83.18
2022-11-20T00:53:51.246Z,83.16
2022-11-20T00:56:19.988Z,83.76
2022-11-20T00:58:48.897Z,85.31
2022-11-20T01:01:27.791Z,85.70
2022-11-20T01:03:59.143Z,86.21
2022-11-20T01:06:35.474Z,86.05
2022-11-20T01:09:08.109Z,86.46
2022-11-20T01:11:38.076Z,86.20
2022-11-20T01:14:08.433Z,86.57
2022-11-20T01:16:41.956Z,86.34
2022-11-20T01:19:17.305Z,86.33
2022-11-20T01:21:46.890Z,86.33
2022-11-20T01:24:16.571Z,86.29
2022-11-20T01:26:45.471Z,86.30
2022-11-20T01:29:25.739Z,86.25
2022-11-20T01:31:53.692Z,86.42
2022-11-20T01:34:23.209Z,86.35
2022-11-20T01:36:51.108Z,86.72
2022-11-20T01:39:24.040Z,86.35
2022-11-20T01:42:10.754Z,86.05
2022-11-20T01:44:52.886Z,86.43
2022-11-20T01:47:38.326Z,86.22
2022-11-20T01:50:23.857Z,86.12
2022-11-20T01:52:58.987Z,86.10
2022-11-20T01:55:37.460Z,86.60
2022-11-20T01:58:05.911Z,86.31
2022-11-20T02:00:33.285Z,86.50
2022-11-20T02:03:08.120Z,86.34
2022-11-20T02:05:42.939Z,85.93
2022-11-20T02:08:10.019Z,86.33
2022-11-20T02:10:36.910Z,86.05
2022-11-20T02:13:23.477Z,85.75
2022-11-20T02:15:50.786Z,85.64
2022-11-20T02:18:21.046Z,86.08
2022-11-20T02:20:51.581Z,85.95
2022-11-20T02:23:29.621Z,86.26
2022-11-20T02:25:58.519Z,86.01
2022-11-20T02:28:25.779Z,86.16
2022-11-20T02:30:52.736Z,85.98
2022-11-20T02:33:19.744Z,86.33
2022-11-20T02:35:48.282Z,86.03
2022-11-20T02:38:16.188Z,85.99
2022-11-20T02:40:43.581Z,86.02
2022-11-20T02:43:10.780Z,86.18
2022-11-20T02:45:37.834Z,86.17
2022-11-20T02:48:05.035Z,85.88
2022-11-20T02:50:32.209Z,85.88
2022-11-20T02:52:59.278Z,85.82
2022-11-20T02:55:26.359Z,85.89
2022-11-20T02:57:53.648Z,86.09
2022-11-20T03:00:20.632Z,85.92
2022-11-20T03:02:47.679Z,85.81
2022-11-20T03:05:14.616Z,86.12
2022-11-20T03:07:41.631Z,86.05
2022-11-20T03:10:09.151Z,86.32
2022-11-20T03:12:36.193Z,85.98
2022-11-20T03:15:03.316Z,85.88
2022-11-20T03:17:30.814Z,85.91
2022-11-20T03:19:57.800Z,86.17
2022-11-20T03:22:24.733Z,85.81
2022-11-20T03:24:52.281Z,86.19
2022-11-20T03:27:19.534Z,85.95
2022-11-20T03:29:46.735Z,85.92
2022-11-20T03:32:13.711Z,86.21
2022-11-20T03:34:40.839Z,86.28
2022-11-20T03:37:07.934Z,85.84
2022-11-20T03:39:34.922Z,86.54
2022-11-20T03:42:01.981Z,86.83
2022-11-20T03:44:28.936Z,86.51
2022-11-20T03:46:55.913Z,86.73
2022-11-20T03:49:23.231Z,86.70
2022-11-20T03:51:50.535Z,86.37
2022-11-20T03:54:17.763Z,86.29
2022-11-20T03:56:44.870Z,86.42
2022-11-20T03:59:12.224Z,86.46
2022-11-20T04:01:39.605Z,86.44
2022-11-20T04:04:06.835Z,86.40
2022-11-20T04:06:38.831Z,86.18
2022-11-20T04:09:06.897Z,86.26
2022-11-20T04:11:35.834Z,86.24
2022-11-20T04:14:05.563Z,86.14
2022-11-20T04:16:35.684Z,86.25
2022-11-20T04:19:04.902Z,86.31
2022-11-20T04:21:32.080Z,86.25
2022-11-20T04:23:59.304Z,85.68
2022-11-20T04:26:28.291Z,85.87
2022-11-20T04:28:56.244Z,86.01
2022-11-20T04:31:29.378Z,86.52
2022-11-20T04:33:56.512Z,86.74
2022-11-20T04:36:27.728Z,86.78
2022-11-20T04:39:15.541Z,86.66
2022-11-20T04:41:42.769Z,86.63
2022-11-20T04:44:09.763Z,86.74
2022-11-20T04:46:42.721Z,87.31
2022-11-20T04:49:10.526Z,87.09
2022-11-20T04:51:37.552Z,87.04
2022-11-20T04:54:04.766Z,87.00
2022-11-20T04:56:31.787Z,87.24
2022-11-20T04:59:02.175Z,87.12
2022-11-20T05:01:30.076Z,86.96
2022-11-20T05:03:56.969Z,86.99
2022-11-20T05:06:24.213Z,87.12
2022-11-20T05:08:51.100Z,87.00
2022-11-20T05:11:20.975Z,87.31
2022-11-20T05:13:48.668Z,88.63
2022-11-20T05:16:19.171Z,88.47
2022-11-20T05:18:47.244Z,88.51
2022-11-20T05:21:15.314Z,89.07
2022-11-20T05:23:43.320Z,89.95
2022-11-20T05:26:17.809Z,90.47
2022-11-20T05:28:44.969Z,91.20
2022-11-20T05:31:26.607Z,91.84
2022-11-20T05:33:54.433Z,92.45
2022-11-20T05:36:21.485Z,93.00
2022-11-20T05:38:50.891Z,93.73
2022-11-20T05:41:20.735Z,93.53
2022-11-20T05:43:49.359Z,92.80
2022-11-20T05:46:22.313Z,92.70
2022-11-20T05:48:52.088Z,93.11
2022-11-20T05:51:20.321Z,93.33
2022-11-20T05:53:48.704Z,93.32
2022-11-20T05:56:20.857Z,93.40
2022-11-20T05:58:48.765Z,93.33
2022-11-20T06:01:17.810Z,93.14
2022-11-20T06:03:48.403Z,93.30
2022-11-20T06:06:16.925Z,93.27
2022-11-20T06:08:45.439Z,93.36
2022-11-20T06:11:14.107Z,93.35
2022-11-20T06:13:42.745Z,93.24
2022-11-20T06:16:11.416Z,93.30
2022-11-20T06:18:38.648Z,93.43
2022-11-20T06:21:06.908Z,93.17
2022-11-20T06:23:35.691Z,93.32
2022-11-20T06:26:05.269Z,93.12
2022-11-20T06:28:32.576Z,93.08
2022-11-20T06:31:00.067Z,93.04
2022-11-20T06:33:26.918Z,92.74
2022-11-20T06:36:00.290Z,93.21
2022-11-20T06:38:29.549Z,92.91
2022-11-20T06:40:56.997Z,92.79
2022-11-20T06:43:26.736Z,92.69
2022-11-20T06:45:55.125Z,92.84
2022-11-20T06:48:22.550Z,92.99
2022-11-20T06:50:49.432Z,93.20
2022-11-20T06:53:16.962Z,93.11
2022-11-20T06:55:47.911Z,93.49
2022-11-20T06:58:16.603Z,93.03
2022-11-20T07:00:44.369Z,93.37
2022-11-20T07:03:13.009Z,93.30
2022-11-20T07:05:40.227Z,93.77
2022-11-20T07:08:07.564Z,93.48
2022-11-20T07:10:35.199Z,93.30
2022-11-20T07:13:02.338Z,92.84
2022-11-20T07:15:29.655Z,93.04
2022-11-20T07:17:56.818Z,92.71
2022-11-20T07:20:23.736Z,92.63
2022-11-20T07:22:55.976Z,92.46
2022-11-20T07:25:24.398Z,92.54
2022-11-20T07:27:51.555Z,92.01
2022-11-20T07:30:19.284Z,91.35
2022-11-20T07:32:52.835Z,91.22
2022-11-20T07:35:20.576Z,90.73
2022-11-20T07:37:48.522Z,90.86
2022-11-20T07:40:16.371Z,90.43
2022-11-20T07:42:53.987Z,90.44
2022-11-20T07:45:22.503Z,91.00
2022-11-20T07:47:49.613Z,91.29
2022-11-20T07:50:17.270Z,90.58
2022-11-20T07:52:44.263Z,90.92
2022-11-20T07:55:11.884Z,90.90
2022-11-20T07:57:39.091Z,90.80
2022-11-20T08:00:10.251Z,90.63
2022-11-20T08:02:41.309Z,90.37
2022-11-20T08:05:09.644Z,89.78
2022-11-20T08:07:41.416Z,90.05
2022-11-20T08:10:10.362Z,89.98
2022-11-20T08:12:55.809Z,90.58
2022-11-20T08:15:22.847Z,90.72
2022-11-20T08:18:15.445Z,90.96
2022-11-20T08:20:36.845Z,91.56
2022-11-20T08:23:06.811Z,91.83
2022-11-20T08:25:38.275Z,91.11
2022-11-20T08:28:18.725Z,90.14
2022-11-20T08:30:48.056Z,88.62
2022-11-20T08:33:15.236Z,87.81
2022-11-20T08:35:42.823Z,87.31
2022-11-20T08:38:10.536Z,87.43
2022-11-20T08:40:37.741Z,86.46
2022-11-20T08:43:05.400Z,86.57
2022-11-20T08:45:34.900Z,85.85
2022-11-20T08:48:04.101Z,85.70
2022-11-20T08:50:34.731Z,86.24
2022-11-20T08:53:05.790Z,86.43
2022-11-20T08:55:32.884Z,86.26
2022-11-20T08:58:04.050Z,86.30
2022-11-20T09:00:30.965Z,86.74
2022-11-20T09:02:59.682Z,86.31
2022-11-20T09:05:26.759Z,86.66
2022-11-20T09:07:57.173Z,86.11
2022-11-20T09:10:25.018Z,85.21
2022-11-20T09:12:53.389Z,83.83
2022-11-20T09:15:21.016Z,83.46
2022-11-20T09:18:06.042Z,83.74
2022-11-20T09:20:33.139Z,83.14
2022-11-20T09:23:00.127Z,82.84
2022-11-20T09:25:27.217Z,84.08
2022-11-20T09:28:00.921Z,84.66
2022-11-20T09:30:28.782Z,83.36
2022-11-20T09:32:56.677Z,82.71
2022-11-20T09:35:23.834Z,82.84
2022-11-20T09:37:51.130Z,82.91
2022-11-20T09:40:22.779Z,81.82
2022-11-20T09:43:20.301Z,80.63
2022-11-20T09:46:13.578Z,81.69
2022-11-20T09:48:55.028Z,81.08
2022-11-20T09:51:46.788Z,80.25
2022-11-20T09:54:39.343Z,78.92
2022-11-20T09:57:17.191Z,78.68
2022-11-20T09:59:45.574Z,78.74
2022-11-20T10:02:27.622Z,79.52
2022-11-20T10:05:19.309Z,80.32
2022-11-20T10:08:10.776Z,81.51
2022-11-20T10:10:53.600Z,80.81
2022-11-20T10:13:35.147Z,80.95
2022-11-20T10:16:02.032Z,81.16
2022-11-20T10:18:29.471Z,80.47
2022-11-20T10:21:25.812Z,78.73
2022-11-20T10:24:11.864Z,78.52
2022-11-20T10:26:59.317Z,78.72
2022-11-20T10:29:38.482Z,79.31
2022-11-20T10:32:36.981Z,78.53
2022-11-20T10:35:27.038Z,79.02
2022-11-20T10:38:01.056Z,78.71
2022-11-20T10:40:39.965Z,78.79
2022-11-20T10:43:16.186Z,78.86
2022-11-20T10:45:56.294Z,78.97
2022-11-20T10:48:26.371Z,79.04
2022-11-20T10:51:34.920Z,80.13
2022-11-20T10:54:13.125Z,80.14
2022-11-20T10:56:42.287Z,79.37
2022-11-20T10:59:39.586Z,79.37
2022-11-20T11:02:22.519Z,79.16
2022-11-20T11:04:59.706Z,79.65
2022-11-20T11:07:38.022Z,80.20
2022-11-20T11:10:17.613Z,79.94
2022-11-20T11:12:51.457Z,79.69
2022-11-20T11:15:39.470Z,79.36
2022-11-20T11:18:10.467Z,78.94
2022-11-20T11:20:37.504Z,78.56
2022-11-20T11:23:05.683Z,78.95
2022-11-20T11:25:35.159Z,79.11
2022-11-20T11:28:22.863Z,79.73
2022-11-20T11:30:50.505Z,79.62
2022-11-20T11:33:21.713Z,79.83
2022-11-20T11:35:53.771Z,80.30
2022-11-20T11:38:30.928Z,80.83
2022-11-20T11:40:58.675Z,81.47
2022-11-20T11:43:47.482Z,81.32
2022-11-20T11:46:29.340Z,81.64
2022-11-20T11:49:18.933Z,82.06
2022-11-20T11:52:10.627Z,83.32
2022-11-20T11:54:47.103Z,83.59
2022-11-20T11:57:50.833Z,84.36
2022-11-20T12:00:21.269Z,84.53
2022-11-20T12:02:51.124Z,84.64
2022-11-20T12:05:23.023Z,84.95
2022-11-20T12:08:01.556Z,84.66
2022-11-20T12:10:46.371Z,84.33
2022-11-20T12:13:31.776Z,84.59
2022-11-20T12:15:59.732Z,84.47
2022-11-20T12:18:26.839Z,84.25
2022-11-20T12:21:05.899Z,83.91
2022-11-20T12:23:59.809Z,84.45
2022-11-20T12:26:32.558Z,84.98
2022-11-20T12:29:18.047Z,85.68
2022-11-20T12:32:11.146Z,86.92
2022-11-20T12:34:46.544Z,87.33
2022-11-20T12:37:25.123Z,87.61
2022-11-20T12:39:57.534Z,87.64
2022-11-20T12:43:20.775Z,87.45
2022-11-20T12:46:09.297Z,87.00
2022-11-20T12:48:46.596Z,88.58
2022-11-20T12:51:33.443Z,89.00
2022-11-20T12:54:15.425Z,90.76
2022-11-20T12:57:15.404Z,90.30
2022-11-20T13:00:07.132Z,90.19
2022-11-20T13:03:34.096Z,90.30
2022-11-20T13:06:12.863Z,90.99
2022-11-20T13:08:41.969Z,90.55
2022-11-20T13:11:33.687Z,90.61
2022-11-20T13:14:12.392Z,90.12
2022-11-20T13:16:51.615Z,90.06
2022-11-20T13:19:19.384Z,90.05
2022-11-20T13:21:50.511Z,90.31
2022-11-20T13:24:20.628Z,90.81
2022-11-20T13:26:48.398Z,91.36
2022-11-20T13:29:20.292Z,90.82
2022-11-20T13:31:49.296Z,91.08
2022-11-20T13:34:27.131Z,91.27
2022-11-20T13:36:56.938Z,91.83
2022-11-20T13:39:37.039Z,91.66
2022-11-20T13:42:26.334Z,91.37
2022-11-20T13:44:56.391Z,91.71
2022-11-20T13:47:29.217Z,91.83
2022-11-20T13:49:59.840Z,91.83
2022-11-20T13:52:26.720Z,91.91
2022-11-20T13:54:53.675Z,91.72
2022-11-20T13:57:58.071Z,92.03
2022-11-20T14:00:26.226Z,92.20
2022-11-20T14:02:59.044Z,92.18
2022-11-20T14:05:25.977Z,92.12
2022-11-20T14:27:24.873Z,91.15
2022-11-20T14:29:52.169Z,91.53
2022-11-20T14:32:23.297Z,92.02
2022-11-20T14:34:52.111Z,92.41
2022-11-20T14:37:25.739Z,92.88
2022-11-20T14:39:57.381Z,92.64
2022-11-20T14:42:27.261Z,92.91
2022-11-20T14:45:00.336Z,93.05
2022-11-20T14:47:30.904Z,93.10
2022-11-20T14:49:59.648Z,93.74
2022-11-20T14:52:28.656Z,94.48
2022-11-20T14:55:02.516Z,94.54
2022-11-20T14:57:34.838Z,95.70
2022-11-20T15:00:13.768Z,97.07
2022-11-20T15:02:43.796Z,98.34
2022-11-20T15:05:11.001Z,98.68
2022-11-20T15:07:46.846Z,98.12
2022-11-20T15:10:20.531Z,98.30
2022-11-20T15:12:51.060Z,98.77
2022-11-20T15:15:24.435Z,98.74
2022-11-20T15:17:51.577Z,98.20
2022-11-20T15:20:18.985Z,97.83
2022-11-20T15:22:46.039Z,97.61
2022-11-20T15:25:14.684Z,97.82
2022-11-20T15:27:42.645Z,97.23
2022-11-20T15:30:19.436Z,97.47
2022-11-20T15:32:47.434Z,97.03
2022-11-20T15:35:16.176Z,96.55
2022-11-20T15:37:43.979Z,96.32
2022-11-20T15:40:11.321Z,96.49
2022-11-20T15:42:38.315Z,96.20
2022-11-20T15:45:05.662Z,95.70
2022-11-20T15:47:36.384Z,95.46
2022-11-20T15:50:03.851Z,95.76
2022-11-20T15:52:40.384Z,96.10
2022-11-20T15:55:12.074Z,95.99
2022-11-20T15:57:39.005Z,95.64
2022-11-20T16:00:06.721Z,95.82
2022-11-20T16:02:37.676Z,96.21
2022-11-20T16:05:05.592Z,96.76
2022-11-20T16:07:32.512Z,96.62
2022-11-20T16:09:59.559Z,97.54
2022-11-20T16:12:45.340Z,97.44
2022-11-20T16:15:30.682Z,98.73
2022-11-20T16:17:57.554Z,98.64
2022-11-20T16:20:24.447Z,99.12
2022-11-20T16:22:51.328Z,99.37
2022-11-20T16:25:18.205Z,99.66
2022-11-20T16:27:45.099Z,99.48
2022-11-20T16:30:14.211Z,99.03
2022-11-20T16:32:44.515Z,98.55
2022-11-20T16:35:11.479Z,98.46
2022-11-20T16:37:40.510Z,98.03
2022-11-20T16:40:07.883Z,97.75
2022-11-20T16:42:36.970Z,97.97
2022-11-20T16:45:05.435Z,97.40
2022-11-20T16:47:36.955Z,97.57
2022-11-20T16:50:05.504Z,97.69
2022-11-20T16:52:32.694Z,97.13
2022-11-20T16:54:59.659Z,97.32
2022-11-20T16:57:29.787Z,97.96
2022-11-20T17:00:01.920Z,97.83
2022-11-20T17:02:29.174Z,97.46
2022-11-20T17:04:56.083Z,97.50
2022-11-20T17:07:23.669Z,97.84
2022-11-20T17:09:50.754Z,97.86
2022-11-20T17:12:17.806Z,97.64
2022-11-20T17:14:44.670Z,97.45
2022-11-20T17:17:12.017Z,97.47
2022-11-20T17:19:38.909Z,98.22
2022-11-20T17:22:05.932Z,98.09
2022-11-20T17:24:33.148Z,97.50
2022-11-20T17:27:00.557Z,97.58
2022-11-20T17:29:27.488Z,96.78
2022-11-20T17:31:54.886Z,97.00
2022-11-20T17:34:22.307Z,97.30
2022-11-20T17:36:49.737Z,97.37
2022-11-20T17:39:17.587Z,97.47
2022-11-20T17:41:44.918Z,97.16
2022-11-20T17:44:13.268Z,97.08
2022-11-20T17:46:40.894Z,96.60
2022-11-20T17:49:07.850Z,96.96
2022-11-20T17:51:37.877Z,97.09
2022-11-20T17:54:07.735Z,96.67
2022-11-20T17:56:54.652Z,96.50
2022-11-20T17:59:22.129Z,96.27
2022-11-20T18:01:49.478Z,96.27
2022-11-20T18:04:16.971Z,96.21
2022-11-20T18:06:44.247Z,96.73
2022-11-20T18:09:12.307Z,96.40
2022-11-20T18:11:42.675Z,96.16
2022-11-20T18:14:36.407Z,96.40
2022-11-20T18:17:09.657Z,95.93
2022-11-20T18:20:01.006Z,95.77
2022-11-20T18:22:32.249Z,95.42
2022-11-20T18:24:59.077Z,95.75
2022-11-20T18:27:26.095Z,95.61
2022-11-20T18:29:53.157Z,95.83
2022-11-20T18:32:21.672Z,96.31
2022-11-20T18:34:48.846Z,96.76
2022-11-20T18:37:16.709Z,96.38
2022-11-20T18:39:44.034Z,96.75
2022-11-20T18:42:32.350Z,96.42
2022-11-20T18:45:00.575Z,96.52
2022-11-20T18:47:32.149Z,96.42
2022-11-20T18:50:01.273Z,96.50
2022-11-20T18:52:34.879Z,97.01
2022-11-20T18:55:03.681Z,96.81
2022-11-20T18:57:31.408Z,96.76
2022-11-20T19:00:03.504Z,96.59
2022-11-20T19:02:34.460Z,96.27
2022-11-20T19:05:06.042Z,96.11
2022-11-20T19:07:33.003Z,96.18
2022-11-20T19:10:03.717Z,95.97
2022-11-20T19:12:31.444Z,96.24
2022-11-20T19:14:58.494Z,96.23
2022-11-20T19:17:25.533Z,96.12
2022-11-20T19:19:55.079Z,96.17
2022-11-20T19:22:22.411Z,95.97
2022-11-20T19:24:49.738Z,95.92
2022-11-20T19:27:17.053Z,96.40
2022-11-20T19:29:44.215Z,96.11
2022-11-20T19:32:11.466Z,95.93
2022-11-20T19:34:38.351Z,95.65
2022-11-20T19:37:05.362Z,95.84
2022-11-20T19:39:32.297Z,95.66
2022-11-20T19:41:59.261Z,95.39
2022-11-20T19:44:26.221Z,95.69
2022-11-20T19:46:53.005Z,95.61
2022-11-20T19:49:19.904Z,95.24
2022-11-20T19:51:49.460Z,94.94
2022-11-20T19:54:17.520Z,95.35
2022-11-20T19:56:45.581Z,95.90
2022-11-20T19:59:13.140Z,95.85
2022-11-20T20:01:40.282Z,95.82
2022-11-20T20:04:07.473Z,95.75
2022-11-20T20:06:36.155Z,95.67
2022-11-20T20:09:13.401Z,95.69
2022-11-20T20:11:40.814Z,95.39
2022-11-20T20:14:13.667Z,95.18
2022-11-20T20:16:41.187Z,95.41
2022-11-20T20:19:08.312Z,95.33
2022-11-20T20:21:36.526Z,95.44
2022-11-20T20:24:03.724Z,95.25
2022-11-20T20:26:31.852Z,94.96
2022-11-20T20:28:59.226Z,94.71
2022-11-20T20:31:27.944Z,94.96
2022-11-20T20:33:55.103Z,94.74
2022-11-20T20:36:23.660Z,94.59
2022-11-20T20:38:59.825Z,94.68
2022-11-20T20:41:27.249Z,94.44
2022-11-20T20:44:12.707Z,94.37
2022-11-20T20:46:40.586Z,94.65
2022-11-20T20:49:08.304Z,94.76
2022-11-20T20:51:35.751Z,94.53
2022-11-20T20:54:03.606Z,95.28
2022-11-20T20:56:30.547Z,95.51
2022-11-20T20:58:57.448Z,95.60
2022-11-20T21:01:28.620Z,95.29
2022-11-20T21:03:56.649Z,95.38
2022-11-20T21:06:24.315Z,95.61
2022-11-20T21:08:51.284Z,95.40
2022-11-20T21:11:20.596Z,95.46
2022-11-20T21:13:48.704Z,95.38
2022-11-20T21:16:17.412Z,95.31
2022-11-20T21:18:44.852Z,95.17
2022-11-20T21:21:32.561Z,95.23
2022-11-20T21:23:59.811Z,95.30
2022-11-20T21:26:27.156Z,95.09
2022-11-20T21:28:54.323Z,95.19
2022-11-20T21:31:23.624Z,94.88
2022-11-20T21:33:52.744Z,94.75
2022-11-20T21:36:24.613Z,94.51
2022-11-20T21:38:54.628Z,94.53
2022-11-20T21:41:22.515Z,94.38
2022-11-20T21:44:23.591Z,94.61
2022-11-20T21:46:41.111Z,94.77
2022-11-20T21:49:08.065Z,95.76
2022-11-20T21:51:35.097Z,95.49
2022-11-20T21:54:02.159Z,95.25
2022-11-20T21:56:28.994Z,95.13
2022-11-20T21:58:56.202Z,95.18
2022-11-20T22:01:28.618Z,94.97
2022-11-20T22:03:57.910Z,94.54
2022-11-20T22:06:27.056Z,95.09
2022-11-20T22:08:54.013Z,95.06
2022-11-20T22:11:22.297Z,95.53
2022-11-20T22:14:07.937Z,95.59
2022-11-20T22:16:36.524Z,95.41
2022-11-20T22:19:04.898Z,95.50
2022-11-20T22:21:32.967Z,96.04
2022-11-20T22:24:00.413Z,95.77
2022-11-20T22:26:29.626Z,95.88
2022-11-20T22:28:58.481Z,95.65
2022-11-20T22:31:30.243Z,95.44
2022-11-20T22:33:58.566Z,95.11
2022-11-20T22:36:28.543Z,94.99
2022-11-20T22:38:56.095Z,95.28
2022-11-20T22:41:27.763Z,95.27
2022-11-20T22:43:56.996Z,94.71
2022-11-20T22:46:25.386Z,94.87
2022-11-20T22:48:57.347Z,94.63
2022-11-20T22:51:34.677Z,94.45
2022-11-20T22:54:03.677Z,94.46
2022-11-20T22:56:31.065Z,94.55
2022-11-20T22:58:58.337Z,94.53
2022-11-20T23:01:34.055Z,94.15
2022-11-20T23:04:06.224Z,94.16
2022-11-20T23:06:36.483Z,94.15
2022-11-20T23:09:07.914Z,94.20
2022-11-20T23:11:35.895Z,94.06
2022-11-20T23:14:08.441Z,94.24
2022-11-20T23:16:35.665Z,94.09
2022-11-20T23:19:08.099Z,93.85
2022-11-20T23:21:37.256Z,93.71
2022-11-20T23:24:05.188Z,93.83
2022-11-20T23:26:35.561Z,93.70
2022-11-20T23:29:03.392Z,93.95
2022-11-20T23:31:32.167Z,95.42
2022-11-20T23:33:59.471Z,96.16
2022-11-20T23:36:26.742Z,97.41
2022-11-20T23:38:53.619Z,96.79
2022-11-20T23:41:20.429Z,96.00
2022-11-20T23:43:47.409Z,95.82
2022-11-20T23:46:16.709Z,95.60
2022-11-20T23:48:45.451Z,95.22
2022-11-20T23:51:13.394Z,95.04
2022-11-20T23:53:40.766Z,94.71
2022-11-20T23:56:07.853Z,94.99
